createdAt,value
2019-03-12T00:00:26.806Z,74.18
2019-03-12T00:02:52.591Z,74.25
2019-03-12T00:05:18.380Z,74.49
2019-03-12T00:07:44.195Z,74.62
2019-03-12T00:10:12.897Z,74.91
2019-03-12T00:12:39.003Z,75.01
2019-03-12T00:15:07.764Z,74.87
2019-03-12T00:17:33.680Z,74.78
2019-03-12T00:20:04.325Z,74.66
2019-03-12T00:22:51.995Z,74.58
2019-03-12T00:25:18.190Z,73.93
2019-03-12T00:27:43.987Z,74.01
2019-03-12T00:30:10.410Z,74.03
2019-03-12T00:32:36.531Z,74.08
2019-03-12T00:35:04.428Z,74.28
2019-03-12T00:37:30.267Z,74.21
2019-03-12T00:39:56.087Z,74.06
2019-03-12T00:42:22.368Z,74.11
2019-03-12T00:44:48.458Z,74.06
2019-03-12T00:47:14.245Z,74.00
2019-03-12T00:49:40.111Z,74.10
2019-03-12T00:52:05.906Z,74.02
2019-03-12T00:54:31.688Z,73.92
2019-03-12T00:56:57.781Z,73.79
2019-03-12T00:59:23.588Z,73.55
2019-03-12T01:01:49.695Z,73.80
2019-03-12T01:04:15.525Z,73.71
2019-03-12T01:06:41.367Z,73.78
2019-03-12T01:09:07.376Z,73.77
2019-03-12T01:11:33.495Z,73.59
2019-03-12T01:13:59.600Z,73.59
2019-03-12T01:16:25.407Z,73.48
2019-03-12T01:18:51.223Z,73.42
2019-03-12T01:21:17.024Z,73.43
2019-03-12T01:23:42.879Z,73.43
2019-03-12T01:26:08.671Z,73.50
2019-03-12T01:28:38.120Z,73.67
2019-03-12T01:31:03.943Z,73.48
2019-03-12T01:33:32.539Z,73.41
2019-03-12T01:35:58.360Z,73.53
2019-03-12T01:38:26.872Z,73.60
2019-03-12T01:40:52.818Z,73.58
2019-03-12T01:43:21.472Z,73.42
2019-03-12T01:45:47.598Z,73.57
2019-03-12T01:48:13.387Z,73.91
2019-03-12T01:50:39.499Z,74.07
2019-03-12T01:53:05.326Z,74.40
2019-03-12T01:55:33.906Z,74.59
2019-03-12T01:57:59.695Z,75.25
2019-03-12T02:00:30.180Z,75.96
2019-03-12T02:02:56.271Z,76.51
2019-03-12T02:05:25.311Z,76.82
2019-03-12T02:07:51.222Z,76.99
2019-03-12T02:10:19.837Z,77.00
2019-03-12T02:12:45.640Z,77.08
2019-03-12T02:15:36.289Z,76.91
2019-03-12T02:18:02.099Z,76.86
2019-03-12T02:20:27.906Z,76.62
2019-03-12T02:22:53.760Z,76.70
2019-03-12T02:25:19.573Z,76.68
2019-03-12T02:27:45.393Z,76.55
2019-03-12T02:30:13.801Z,76.55
2019-03-12T02:32:39.613Z,76.84
2019-03-12T02:35:06.131Z,76.96
2019-03-12T02:37:33.881Z,77.02
2019-03-12T02:39:59.813Z,76.90
2019-03-12T02:42:25.883Z,76.90
2019-03-12T02:44:51.799Z,76.98
2019-03-12T02:47:17.586Z,77.08
2019-03-12T02:49:43.405Z,77.78
2019-03-12T02:52:09.209Z,78.49
2019-03-12T02:54:35.306Z,78.81
2019-03-12T02:57:01.085Z,78.94
2019-03-12T02:59:27.157Z,79.34
2019-03-12T03:01:53.251Z,79.43
2019-03-12T03:04:19.352Z,79.51
2019-03-12T03:06:52.921Z,79.67
2019-03-12T03:09:19.035Z,79.86
2019-03-12T03:11:45.335Z,79.87
2019-03-12T03:14:31.854Z,79.55
2019-03-12T03:16:57.723Z,79.41
2019-03-12T03:19:23.640Z,79.65
2019-03-12T03:21:49.676Z,79.74
2019-03-12T03:24:15.500Z,79.76
2019-03-12T03:26:41.300Z,80.12
2019-03-12T03:29:07.118Z,80.11
2019-03-12T03:31:32.934Z,80.24
2019-03-12T03:33:58.753Z,80.08
2019-03-12T03:36:24.777Z,80.07
2019-03-12T03:38:50.959Z,80.08
2019-03-12T03:41:16.894Z,80.01
2019-03-12T03:43:42.685Z,79.91
2019-03-12T03:46:08.724Z,80.12
2019-03-12T03:48:34.534Z,80.24
2019-03-12T03:51:00.336Z,80.46
2019-03-12T03:53:26.260Z,80.51
2019-03-12T03:55:52.044Z,80.57
2019-03-12T03:58:17.907Z,80.52
2019-03-12T04:00:43.964Z,80.42
2019-03-12T04:03:09.761Z,80.60
2019-03-12T04:05:35.605Z,80.61
2019-03-12T04:08:01.402Z,80.33
2019-03-12T04:10:27.212Z,80.20
2019-03-12T04:12:53.056Z,80.19
2019-03-12T04:15:18.958Z,80.36
2019-03-12T04:17:44.758Z,80.50
2019-03-12T04:20:12.241Z,80.54
2019-03-12T04:22:38.637Z,80.60
2019-03-12T04:25:06.269Z,81.00
2019-03-12T04:27:32.372Z,81.31
2019-03-12T04:29:58.589Z,81.36
2019-03-12T04:32:24.728Z,81.28
2019-03-12T04:34:50.544Z,81.32
2019-03-12T04:37:19.758Z,81.33
2019-03-12T04:39:45.832Z,81.50
2019-03-12T04:42:14.563Z,81.78
2019-03-12T04:44:40.397Z,81.83
2019-03-12T04:47:08.985Z,81.73
2019-03-12T04:49:34.827Z,81.82
2019-03-12T04:52:00.641Z,81.79
2019-03-12T04:54:26.477Z,81.74
2019-03-12T04:56:52.289Z,81.64
2019-03-12T04:59:21.198Z,81.53
2019-03-12T05:01:47.287Z,81.65
2019-03-12T05:04:15.936Z,81.55
2019-03-12T05:06:41.749Z,81.73
2019-03-12T05:09:12.951Z,81.73
2019-03-12T05:11:38.782Z,81.68
2019-03-12T05:14:19.293Z,81.51
2019-03-12T05:16:45.399Z,81.30
2019-03-12T05:19:11.475Z,81.19
2019-03-12T05:21:37.615Z,81.04
2019-03-12T05:24:03.456Z,81.14
2019-03-12T05:26:29.258Z,81.85
2019-03-12T05:28:55.087Z,81.90
2019-03-12T05:31:20.921Z,82.01
2019-03-12T05:33:46.845Z,82.44
2019-03-12T05:36:12.646Z,82.51
2019-03-12T05:38:38.466Z,82.55
2019-03-12T05:41:04.246Z,82.54
2019-03-12T05:43:30.352Z,82.48
2019-03-12T05:45:56.196Z,82.31
2019-03-12T05:48:22.021Z,82.36
2019-03-12T05:50:50.602Z,82.36
2019-03-12T05:53:16.463Z,82.47
2019-03-12T05:55:45.090Z,82.36
2019-03-12T05:58:10.889Z,82.12
2019-03-12T06:00:39.571Z,82.00
2019-03-12T06:03:05.416Z,82.05
2019-03-12T06:05:31.221Z,81.99
2019-03-12T06:07:57.316Z,81.99
2019-03-12T06:10:23.423Z,81.80
2019-03-12T06:12:50.570Z,81.54
2019-03-12T06:15:16.396Z,81.00
2019-03-12T06:17:45.749Z,80.45
2019-03-12T06:20:15.412Z,80.05
2019-03-12T06:22:41.638Z,79.75
2019-03-12T06:25:07.567Z,78.98
2019-03-12T06:27:36.103Z,78.54
2019-03-12T06:30:04.461Z,78.60
2019-03-12T06:32:32.163Z,78.35
2019-03-12T06:35:00.402Z,78.41
2019-03-12T06:37:44.656Z,78.58
2019-03-12T06:40:15.429Z,78.44
2019-03-12T06:42:49.493Z,78.46
2019-03-12T06:47:56.732Z,77.92
2019-03-12T06:50:24.448Z,77.94
2019-03-12T06:52:58.290Z,77.58
2019-03-12T06:55:32.162Z,77.39
2019-03-12T06:58:08.514Z,76.46
2019-03-12T07:00:54.210Z,74.85
2019-03-12T07:03:21.910Z,72.33
2019-03-12T07:06:06.603Z,71.49
2019-03-12T07:08:40.340Z,70.69
2019-03-12T07:11:11.142Z,69.17
2019-03-12T07:13:38.907Z,71.64
2019-03-12T07:16:06.609Z,73.12
2019-03-12T07:18:34.617Z,74.32
2019-03-12T07:23:44.638Z,70.33
2019-03-12T07:26:14.879Z,66.41
2019-03-12T07:28:50.713Z,64.24
2019-03-12T07:31:31.597Z,63.83
2019-03-12T07:34:11.660Z,63.34
2019-03-12T07:39:18.823Z,61.46
2019-03-12T07:41:52.963Z,60.91
2019-03-12T07:44:30.098Z,60.62
2019-03-12T07:46:58.083Z,58.67
2019-03-12T07:49:42.063Z,55.84
2019-03-12T07:52:13.205Z,56.08
2019-03-12T07:54:43.882Z,56.61
2019-03-12T07:57:11.926Z,55.76
2019-03-12T07:59:39.629Z,56.08
2019-03-12T08:02:24.308Z,55.51
2019-03-12T08:04:51.999Z,55.20
2019-03-12T08:07:25.807Z,55.01
2019-03-12T08:10:01.197Z,54.19
2019-03-12T08:12:47.762Z,55.07
2019-03-12T08:15:32.588Z,55.76
2019-03-12T08:18:00.345Z,55.41
2019-03-12T08:20:34.606Z,54.77
2019-03-12T08:23:19.441Z,54.95
2019-03-12T08:25:56.177Z,55.21
2019-03-12T08:28:23.999Z,54.96
2019-03-12T08:30:54.850Z,53.72
2019-03-12T08:33:28.621Z,54.28
2019-03-12T08:35:58.879Z,53.35
2019-03-12T08:38:41.279Z,54.23
2019-03-12T08:41:08.976Z,54.13
2019-03-12T08:43:42.810Z,52.51
2019-03-12T08:46:13.269Z,52.83
2019-03-12T08:48:59.554Z,52.21
2019-03-12T08:51:39.284Z,51.82
2019-03-12T08:54:10.317Z,51.94
2019-03-12T08:56:41.256Z,51.58
2019-03-12T08:59:17.976Z,51.46
2019-03-12T09:01:47.419Z,51.55
2019-03-12T09:04:33.851Z,51.08
2019-03-12T09:07:05.335Z,51.73
2019-03-12T09:09:35.905Z,51.07
2019-03-12T09:12:22.227Z,50.53
2019-03-12T09:14:55.907Z,51.56
2019-03-12T09:17:23.647Z,52.40
2019-03-12T09:20:08.073Z,50.72
2019-03-12T09:22:48.715Z,50.26
2019-03-12T09:25:36.449Z,49.95
2019-03-12T09:31:21.805Z,49.06
2019-03-12T09:33:52.787Z,49.25
2019-03-12T09:36:23.629Z,49.19
2019-03-12T09:38:54.657Z,47.64
2019-03-12T09:41:31.279Z,46.83
2019-03-12T09:44:08.541Z,45.63
2019-03-12T09:46:48.114Z,44.27
2019-03-12T09:49:22.155Z,43.96
2019-03-12T09:51:52.954Z,42.30
2019-03-12T09:54:20.668Z,45.07
2019-03-12T09:56:48.411Z,47.25
2019-03-12T09:59:24.678Z,47.96
2019-03-12T10:01:55.429Z,47.94
2019-03-12T10:04:26.506Z,48.56
2019-03-12T10:07:00.622Z,49.15
2019-03-12T10:12:27.231Z,48.47
2019-03-12T10:14:57.596Z,48.54
2019-03-12T10:17:42.170Z,48.84
2019-03-12T10:20:18.442Z,47.86
2019-03-12T10:22:52.028Z,46.44
2019-03-12T10:25:36.711Z,45.16
2019-03-12T10:28:14.061Z,45.15
2019-03-12T10:30:50.844Z,43.91
2019-03-12T10:36:06.239Z,41.89
2019-03-12T10:39:15.717Z,41.81
2019-03-12T10:41:55.841Z,41.10
2019-03-12T10:44:26.592Z,41.12
2019-03-12T10:46:57.205Z,40.47
2019-03-12T10:49:23.012Z,39.23
2019-03-12T10:51:49.126Z,39.37
2019-03-12T10:54:15.208Z,38.71
2019-03-12T10:56:41.301Z,39.90
2019-03-12T10:59:07.125Z,39.50
2019-03-12T11:01:32.941Z,40.02
2019-03-12T11:03:58.729Z,40.52
2019-03-12T11:06:24.561Z,41.02
2019-03-12T11:08:50.390Z,40.63
2019-03-12T11:11:16.441Z,39.86
2019-03-12T11:13:42.363Z,41.16
2019-03-12T11:16:08.514Z,40.71
2019-03-12T11:18:34.563Z,42.20
2019-03-12T11:21:00.622Z,43.26
2019-03-12T11:23:26.452Z,43.38
2019-03-12T11:25:52.530Z,40.55
2019-03-12T11:28:18.622Z,37.50
2019-03-12T11:30:44.445Z,37.46
2019-03-12T11:33:10.578Z,38.73
2019-03-12T11:35:39.324Z,34.52
2019-03-12T11:38:04.442Z,35.49
2019-03-12T11:40:32.482Z,36.76
2019-03-12T11:42:58.601Z,39.79
2019-03-12T11:45:35.805Z,41.30
2019-03-12T11:47:52.580Z,41.90
2019-03-12T11:50:21.513Z,41.77
2019-03-12T11:52:55.006Z,40.28
2019-03-12T11:55:15.665Z,37.07
2019-03-12T11:57:41.541Z,38.30
2019-03-12T12:00:19.244Z,38.84
2019-03-12T12:02:43.105Z,37.14
2019-03-12T12:05:09.285Z,33.64
2019-03-12T12:07:35.089Z,33.39
2019-03-12T12:10:02.774Z,30.64
2019-03-12T12:12:28.913Z,31.24
2019-03-12T12:14:54.731Z,33.37
2019-03-12T12:17:20.549Z,35.78
2019-03-12T12:19:46.615Z,35.71
2019-03-12T12:22:12.538Z,36.25
2019-03-12T12:24:38.611Z,36.11
2019-03-12T12:27:04.451Z,36.54
2019-03-12T12:29:30.260Z,36.23
2019-03-12T12:31:56.055Z,39.03
2019-03-12T12:34:22.188Z,39.92
2019-03-12T12:36:48.026Z,35.99
2019-03-12T12:39:13.838Z,33.79
2019-03-12T12:41:39.644Z,32.71
2019-03-12T12:44:05.482Z,32.75
2019-03-12T12:46:31.258Z,33.99
2019-03-12T12:48:57.104Z,34.56
2019-03-12T12:51:23.501Z,35.34
2019-03-12T12:53:49.343Z,36.65
2019-03-12T12:56:15.168Z,35.58
2019-03-12T12:58:41.299Z,35.55
2019-03-12T13:01:07.442Z,36.70
2019-03-12T13:03:33.261Z,37.34
2019-03-12T13:05:59.056Z,37.06
2019-03-12T13:08:24.917Z,37.78
2019-03-12T13:10:50.955Z,38.52
2019-03-12T13:13:16.769Z,38.11
2019-03-12T13:15:42.860Z,37.75
2019-03-12T13:18:08.698Z,38.82
2019-03-12T13:20:34.602Z,38.29
2019-03-12T13:23:00.698Z,38.98
2019-03-12T13:25:26.521Z,39.19
2019-03-12T13:27:52.595Z,39.25
2019-03-12T13:30:24.125Z,38.89
2019-03-12T13:32:50.157Z,39.87
2019-03-12T13:35:16.764Z,40.26
2019-03-12T13:37:42.552Z,40.44
2019-03-12T13:40:19.892Z,41.02
2019-03-12T13:42:45.783Z,43.03
2019-03-12T13:45:17.883Z,43.17
2019-03-12T13:47:43.674Z,41.92
2019-03-12T13:50:11.557Z,43.02
2019-03-12T13:52:37.425Z,42.88
2019-03-12T13:55:05.844Z,42.97
2019-03-12T13:57:31.644Z,42.72
2019-03-12T13:59:57.462Z,42.90
2019-03-12T14:02:23.308Z,42.50
2019-03-12T14:04:49.132Z,43.74
2019-03-12T14:07:14.930Z,43.03
2019-03-12T14:09:40.817Z,43.91
2019-03-12T14:12:06.754Z,43.52
2019-03-12T14:14:32.557Z,43.02
2019-03-12T14:16:58.387Z,42.30
2019-03-12T14:19:24.223Z,42.17
2019-03-12T14:21:50.035Z,42.84
2019-03-12T14:24:15.957Z,42.57
2019-03-12T14:26:41.785Z,42.04
2019-03-12T14:29:07.988Z,42.08
2019-03-12T14:31:33.801Z,42.21
2019-03-12T14:33:59.907Z,42.37
2019-03-12T14:36:25.700Z,42.15
2019-03-12T14:38:51.519Z,41.55
2019-03-12T14:41:20.582Z,41.22
2019-03-12T14:43:46.687Z,41.70
2019-03-12T14:46:15.254Z,41.29
2019-03-12T14:48:47.534Z,40.92
2019-03-12T14:51:17.203Z,41.42
2019-03-12T14:53:46.662Z,41.11
2019-03-12T14:56:12.470Z,40.62
2019-03-12T14:58:38.685Z,40.91
2019-03-12T15:01:04.875Z,41.42
2019-03-12T15:03:30.717Z,41.81
2019-03-12T15:05:56.946Z,41.73
2019-03-12T15:08:22.753Z,42.63
2019-03-12T15:10:48.833Z,42.67
2019-03-12T15:13:14.657Z,43.02
2019-03-12T15:15:40.723Z,43.10
2019-03-12T15:18:06.553Z,44.02
2019-03-12T15:20:32.409Z,44.13
2019-03-12T15:22:59.354Z,43.80
2019-03-12T15:25:25.190Z,44.40
2019-03-12T15:27:54.833Z,44.31
2019-03-12T15:30:27.992Z,45.68
2019-03-12T15:32:53.802Z,45.53
2019-03-12T15:35:19.627Z,46.48
2019-03-12T15:37:45.444Z,45.89
2019-03-12T15:40:12.501Z,46.97
2019-03-12T15:42:38.601Z,45.24
2019-03-12T15:45:07.622Z,42.75
2019-03-12T15:47:33.969Z,41.69
2019-03-12T15:50:01.268Z,42.34
2019-03-12T15:52:27.362Z,42.38
2019-03-12T15:54:53.246Z,42.49
2019-03-12T15:57:19.054Z,43.09
2019-03-12T15:59:44.907Z,43.45
2019-03-12T16:02:10.719Z,43.84
2019-03-12T16:04:39.526Z,43.56
2019-03-12T16:07:05.601Z,44.41
2019-03-12T16:09:35.973Z,44.29
2019-03-12T16:12:02.045Z,44.81
2019-03-12T16:14:27.862Z,44.90
2019-03-12T16:16:53.677Z,45.69
2019-03-12T16:19:19.476Z,45.67
2019-03-12T16:21:48.131Z,45.81
2019-03-12T16:24:14.247Z,46.65
2019-03-12T16:26:43.144Z,47.05
2019-03-12T16:29:08.928Z,46.66
2019-03-12T16:31:37.621Z,46.89
2019-03-12T16:34:03.534Z,46.88
2019-03-12T16:36:32.288Z,46.80
2019-03-12T16:38:58.411Z,47.67
2019-03-12T16:41:27.234Z,47.73
2019-03-12T16:43:53.454Z,48.19
2019-03-12T16:46:19.627Z,47.96
2019-03-12T16:48:45.419Z,48.14
2019-03-12T16:51:11.230Z,48.48
2019-03-12T16:53:37.162Z,49.10
2019-03-12T16:56:02.992Z,49.31
2019-03-12T16:58:32.095Z,49.21
2019-03-12T17:00:58.036Z,49.67
2019-03-12T17:03:26.017Z,49.92
2019-03-12T17:05:52.075Z,50.55
2019-03-12T17:08:22.691Z,50.72
2019-03-12T17:10:56.037Z,51.10
2019-03-12T17:13:16.474Z,51.24
2019-03-12T17:15:42.601Z,51.52
2019-03-12T17:18:11.306Z,51.90
2019-03-12T17:20:37.139Z,52.06
2019-03-12T17:23:05.991Z,52.08
2019-03-12T17:25:32.148Z,52.27
2019-03-12T17:27:57.946Z,52.83
2019-03-12T17:30:23.873Z,53.23
2019-03-12T17:32:49.790Z,52.68
2019-03-12T17:35:35.567Z,52.48
2019-03-12T17:38:01.484Z,51.93
2019-03-12T17:40:27.617Z,52.62
2019-03-12T17:42:53.962Z,52.29
2019-03-12T17:45:19.761Z,52.11
2019-03-12T17:47:46.458Z,52.63
2019-03-12T17:50:12.732Z,52.84
2019-03-12T17:52:38.543Z,52.48
2019-03-12T17:55:07.503Z,52.28
2019-03-12T17:57:33.607Z,51.93
2019-03-12T17:59:59.461Z,51.80
2019-03-12T18:02:25.551Z,51.59
2019-03-12T18:04:51.356Z,51.40
2019-03-12T18:07:17.177Z,51.17
2019-03-12T18:09:43.056Z,50.91
2019-03-12T18:12:08.874Z,50.62
2019-03-12T18:14:34.671Z,50.71
2019-03-12T18:17:00.744Z,50.89
2019-03-12T18:19:26.822Z,50.73
2019-03-12T18:21:52.651Z,51.01
2019-03-12T18:24:18.502Z,50.52
2019-03-12T18:26:47.352Z,51.28
2019-03-12T18:29:13.419Z,50.99
2019-03-12T18:31:42.560Z,51.64
2019-03-12T18:34:08.685Z,51.11
2019-03-12T18:36:38.094Z,51.21
2019-03-12T18:39:04.828Z,51.07
2019-03-12T18:41:30.628Z,51.25
2019-03-12T18:43:56.453Z,51.37
2019-03-12T18:46:22.561Z,51.51
2019-03-12T18:48:48.696Z,51.47
2019-03-12T18:51:14.495Z,51.13
2019-03-12T18:53:43.083Z,51.27
2019-03-12T18:56:09.148Z,51.52
2019-03-12T18:58:38.011Z,51.79
2019-03-12T19:01:04.231Z,51.73
2019-03-12T19:03:33.124Z,51.86
2019-03-12T19:05:59.217Z,51.91
2019-03-12T19:08:26.180Z,51.87
2019-03-12T19:10:52.359Z,52.28
2019-03-12T19:13:20.833Z,52.00
2019-03-12T19:15:46.627Z,52.01
2019-03-12T19:18:12.466Z,52.24
2019-03-12T19:20:38.261Z,52.06
2019-03-12T19:23:04.196Z,52.17
2019-03-12T19:25:41.031Z,52.20
2019-03-12T19:28:06.975Z,51.99
2019-03-12T19:30:32.859Z,52.11
2019-03-12T19:33:01.098Z,51.88
2019-03-12T19:35:28.406Z,52.17
2019-03-12T19:37:55.595Z,52.58
2019-03-12T19:40:28.428Z,52.35
2019-03-12T19:42:54.331Z,52.44
2019-03-12T19:45:20.443Z,52.54
2019-03-12T19:47:46.259Z,52.12
2019-03-12T19:50:17.669Z,52.18
2019-03-12T19:52:43.456Z,52.26
2019-03-12T19:55:12.475Z,51.89
2019-03-12T19:57:38.343Z,52.16
2019-03-12T20:00:10.998Z,52.26
2019-03-12T20:02:37.182Z,52.31
2019-03-12T20:05:05.704Z,52.07
2019-03-12T20:07:31.654Z,52.19
2019-03-12T20:10:01.322Z,52.30
2019-03-12T20:12:45.926Z,52.26
2019-03-12T20:15:37.017Z,52.20
2019-03-12T20:18:40.517Z,52.00
2019-03-12T20:21:22.492Z,52.31
2019-03-12T20:24:21.359Z,52.45
2019-03-12T20:27:09.230Z,52.34
2019-03-12T20:30:04.831Z,52.28
2019-03-12T20:32:43.257Z,52.23
2019-03-12T20:35:35.704Z,52.27
2019-03-12T20:38:25.488Z,52.22
2019-03-12T20:40:58.174Z,52.43
2019-03-12T20:44:01.592Z,52.57
2019-03-12T20:46:52.455Z,52.28
2019-03-12T20:49:48.160Z,53.00
2019-03-12T20:52:46.863Z,52.79
2019-03-12T20:55:32.942Z,52.59
2019-03-12T20:58:22.011Z,52.54
2019-03-12T21:00:54.617Z,52.69
2019-03-12T21:03:59.813Z,52.35
2019-03-12T21:06:38.813Z,52.26
2019-03-12T21:09:43.982Z,51.92
2019-03-12T21:12:33.418Z,51.79
2019-03-12T21:15:30.343Z,52.22
2019-03-12T21:18:33.600Z,52.23
2019-03-12T21:21:23.360Z,52.09
2019-03-12T21:23:55.728Z,52.45
2019-03-12T21:26:54.594Z,52.47
2019-03-12T21:29:43.495Z,52.28
2019-03-12T21:32:10.442Z,52.35
2019-03-12T21:34:36.224Z,52.17
2019-03-12T21:37:02.281Z,52.19
2019-03-12T21:39:28.364Z,52.24
2019-03-12T21:41:54.191Z,52.38
2019-03-12T21:44:20.051Z,52.29
2019-03-12T21:46:45.928Z,52.12
2019-03-12T21:49:12.050Z,52.48
2019-03-12T21:51:38.144Z,52.41
2019-03-12T21:54:03.951Z,52.18
2019-03-12T21:56:29.738Z,51.88
2019-03-12T21:58:55.554Z,51.51
2019-03-12T22:01:21.753Z,51.46
2019-03-12T22:03:47.576Z,51.70
2019-03-12T22:06:13.391Z,51.89
2019-03-12T22:08:39.181Z,51.76
2019-03-12T22:11:05.339Z,51.06
2019-03-12T22:13:31.411Z,51.12
2019-03-12T22:15:57.258Z,50.59
2019-03-12T22:18:23.394Z,50.50
2019-03-12T22:20:51.304Z,50.07
2019-03-12T22:23:19.251Z,49.81
2019-03-12T22:25:45.045Z,48.99
2019-03-12T22:28:11.185Z,48.97
2019-03-12T22:30:36.974Z,48.47
2019-03-12T22:33:03.278Z,48.11
2019-03-12T22:35:29.329Z,47.23
2019-03-12T22:37:55.423Z,47.33
2019-03-12T22:40:21.569Z,47.26
2019-03-12T22:42:47.650Z,47.00
2019-03-12T22:45:14.706Z,45.90
2019-03-12T22:47:40.815Z,46.05
2019-03-12T22:50:15.985Z,46.70
2019-03-12T22:52:41.773Z,46.71
2019-03-12T22:55:08.861Z,47.77
2019-03-12T22:57:34.694Z,49.82
2019-03-12T23:00:00.523Z,50.26
2019-03-12T23:02:26.741Z,50.49
2019-03-12T23:04:55.551Z,51.41
2019-03-12T23:07:21.377Z,52.68
2019-03-12T23:09:50.248Z,54.11
2019-03-12T23:12:17.046Z,54.72
2019-03-12T23:14:43.104Z,55.89
2019-03-12T23:17:09.181Z,56.72
2019-03-12T23:19:35.018Z,60.18
2019-03-12T23:22:00.943Z,61.60
2019-03-12T23:24:26.808Z,62.23
2019-03-12T23:26:55.838Z,62.80
2019-03-12T23:29:21.793Z,63.34
2019-03-12T23:31:50.464Z,64.38
2019-03-12T23:34:16.307Z,65.24
2019-03-12T23:36:43.851Z,66.29
2019-03-12T23:39:10.010Z,67.57
2019-03-12T23:41:40.891Z,68.94
2019-03-12T23:44:06.949Z,70.08
2019-03-12T23:46:35.779Z,71.42
2019-03-12T23:49:01.879Z,72.48
2019-03-12T23:51:27.815Z,74.17
2019-03-12T23:53:53.622Z,75.11
2019-03-12T23:56:19.725Z,75.49
2019-03-12T23:58:45.543Z,76.25
